createdAt,value
2023-03-05T00:01:33.123Z,14.75
2023-03-05T00:04:03.425Z,15.88
2023-03-05T00:09:02.368Z,12.60
2023-03-05T00:11:33.358Z,16.83
2023-03-05T00:14:04.025Z,15.00
2023-03-05T00:16:32.085Z,13.85
2023-03-05T00:19:02.241Z,13.40
2023-03-05T00:21:34.945Z,14.70
2023-03-05T00:24:12.566Z,11.60
2023-03-05T00:26:40.086Z,12.00
2023-03-05T00:29:09.327Z,11.63
2023-03-05T00:31:38.236Z,14.05
2023-03-05T00:34:11.201Z,16.48
2023-03-05T00:36:45.591Z,18.33
2023-03-05T00:39:13.821Z,15.48
2023-03-05T00:41:41.551Z,16.38
2023-03-05T00:44:08.567Z,16.50
2023-03-05T00:46:36.413Z,14.80
2023-03-05T00:49:04.555Z,16.45
2023-03-05T00:51:32.029Z,15.95
2023-03-05T00:53:59.032Z,15.98
2023-03-05T00:56:26.347Z,15.80
2023-03-05T00:58:54.036Z,16.27
2023-03-05T01:01:21.538Z,16.58
2023-03-05T01:03:48.670Z,16.52
2023-03-05T01:06:17.153Z,16.15
2023-03-05T01:08:45.188Z,15.90
2023-03-05T01:11:13.312Z,16.75
2023-03-05T01:13:40.840Z,16.25
2023-03-05T01:16:08.636Z,15.07
2023-03-05T01:18:37.685Z,14.63
2023-03-05T01:21:05.672Z,14.63
2023-03-05T01:23:34.444Z,14.27
2023-03-05T01:26:02.420Z,14.70
2023-03-05T01:28:29.623Z,14.50
2023-03-05T01:30:56.858Z,15.57
2023-03-05T01:33:24.004Z,12.18
2023-03-05T01:35:52.155Z,13.93
2023-03-05T01:38:19.346Z,11.90
2023-03-05T01:40:46.675Z,12.05
2023-03-05T01:43:13.788Z,14.55
2023-03-05T01:46:13.092Z,14.40
2023-03-05T01:48:44.217Z,13.13
2023-03-05T01:51:12.457Z,14.02
2023-03-05T01:53:40.103Z,10.98
2023-03-05T01:56:07.891Z,13.25
2023-03-05T01:58:35.236Z,12.68
2023-03-05T02:01:05.377Z,13.93
2023-03-05T02:03:34.546Z,12.80
2023-03-05T02:06:04.229Z,14.40
2023-03-05T02:08:31.566Z,15.60
2023-03-05T02:11:00.365Z,13.23
2023-03-05T02:13:34.035Z,14.90
2023-03-05T02:16:03.199Z,14.63
2023-03-05T02:18:30.721Z,15.95
2023-03-05T02:21:00.455Z,13.20
2023-03-05T02:23:36.663Z,14.30
2023-03-05T02:26:11.104Z,13.15
2023-03-05T02:28:49.143Z,10.68
2023-03-05T02:31:23.458Z,12.23
2023-03-05T02:33:53.859Z,9.82
2023-03-05T02:36:22.952Z,9.85
2023-03-05T02:38:50.336Z,9.82
2023-03-05T02:41:17.542Z,11.55
2023-03-05T02:43:44.524Z,11.25
2023-03-05T02:46:12.447Z,11.45
2023-03-05T02:48:39.690Z,11.80
2023-03-05T02:51:08.511Z,10.98
2023-03-05T02:53:35.983Z,11.10
2023-03-05T02:56:04.583Z,11.32
2023-03-05T02:58:34.330Z,10.38
2023-03-05T03:01:02.390Z,7.93
2023-03-05T03:03:30.645Z,10.75
2023-03-05T03:05:58.201Z,9.15
2023-03-05T03:08:25.168Z,8.75
2023-03-05T03:10:52.468Z,8.05
2023-03-05T03:13:19.372Z,12.52
2023-03-05T03:15:46.617Z,7.65
2023-03-05T03:18:13.593Z,7.93
2023-03-05T03:20:40.972Z,6.70
2023-03-05T03:23:08.320Z,6.53
2023-03-05T03:25:35.477Z,7.53
2023-03-05T03:28:02.937Z,6.82
2023-03-05T03:30:30.286Z,7.40
2023-03-05T03:32:57.908Z,8.38
2023-03-05T03:35:25.200Z,9.27
2023-03-05T03:37:52.095Z,5.75
2023-03-05T03:40:19.565Z,6.55
2023-03-05T03:42:46.647Z,8.25
2023-03-05T03:45:14.399Z,5.97
2023-03-05T03:47:41.366Z,7.70
2023-03-05T03:50:10.643Z,6.82
2023-03-05T03:52:37.543Z,8.18
2023-03-05T03:55:05.256Z,5.90
2023-03-05T03:57:33.553Z,5.95
2023-03-05T04:00:01.305Z,5.70
2023-03-05T04:02:28.471Z,6.68
2023-03-05T04:04:55.756Z,6.68
2023-03-05T04:07:22.794Z,4.95
2023-03-05T04:09:50.371Z,5.82
2023-03-05T04:12:18.329Z,6.63
2023-03-05T04:14:47.916Z,6.55
2023-03-05T04:17:16.287Z,5.78
2023-03-05T04:19:44.895Z,5.65
2023-03-05T04:22:17.932Z,6.60
2023-03-05T04:24:45.127Z,7.07
2023-03-05T04:27:12.156Z,6.07
2023-03-05T04:29:39.454Z,6.03
2023-03-05T04:32:06.741Z,5.47
2023-03-05T04:34:34.234Z,6.35
2023-03-05T04:37:01.350Z,6.07
2023-03-05T04:39:28.688Z,7.00
2023-03-05T04:41:55.610Z,5.78
2023-03-05T04:44:25.254Z,7.13
2023-03-05T04:46:52.612Z,6.85
2023-03-05T04:49:20.533Z,7.43
2023-03-05T04:51:47.550Z,6.05
2023-03-05T04:54:14.724Z,7.35
2023-03-05T04:56:41.723Z,6.47
2023-03-05T04:59:08.965Z,5.05
2023-03-05T05:01:35.982Z,5.93
2023-03-05T05:04:03.254Z,5.90
2023-03-05T05:06:30.341Z,7.28
2023-03-05T05:08:57.875Z,6.45
2023-03-05T05:11:25.048Z,8.57
2023-03-05T05:13:52.312Z,8.55
2023-03-05T05:16:19.428Z,7.75
2023-03-05T05:18:46.593Z,9.38
2023-03-05T05:21:15.172Z,9.88
2023-03-05T05:23:42.304Z,8.55
2023-03-05T05:26:14.153Z,9.05
2023-03-05T05:28:43.676Z,8.65
2023-03-05T05:31:13.859Z,8.20
2023-03-05T05:33:42.353Z,10.80
2023-03-05T05:36:14.396Z,11.85
2023-03-05T05:38:42.534Z,9.07
2023-03-05T05:41:14.109Z,10.85
2023-03-05T05:43:42.496Z,10.65
2023-03-05T05:46:14.809Z,11.70
2023-03-05T05:48:42.736Z,8.60
2023-03-05T05:51:18.340Z,9.15
2023-03-05T05:53:46.760Z,8.77
2023-03-05T05:56:16.553Z,11.07
2023-03-05T05:58:47.793Z,10.32
2023-03-05T06:01:29.419Z,10.40
2023-03-05T06:03:57.956Z,12.77
2023-03-05T06:06:27.220Z,9.15
2023-03-05T06:08:55.105Z,13.63
2023-03-05T06:11:22.835Z,9.20
2023-03-05T06:13:50.481Z,9.52
2023-03-05T06:16:22.069Z,9.02
2023-03-05T06:18:51.176Z,17.45
2023-03-05T06:21:22.003Z,16.27
2023-03-05T06:23:50.273Z,15.80
2023-03-05T06:26:22.053Z,18.70
2023-03-05T06:28:49.383Z,19.58
2023-03-05T06:31:21.870Z,19.17
2023-03-05T06:33:50.310Z,22.58
2023-03-05T06:36:20.160Z,17.88
2023-03-05T06:38:49.146Z,20.15
2023-03-05T06:41:21.142Z,21.08
2023-03-05T06:43:49.010Z,17.98
2023-03-05T06:46:31.653Z,14.52
2023-03-05T06:49:02.579Z,17.10
2023-03-05T06:51:34.844Z,16.02
2023-03-05T06:56:32.620Z,14.80
2023-03-05T06:58:59.905Z,17.50
2023-03-05T07:01:27.000Z,17.25
2023-03-05T07:03:55.647Z,14.05
2023-03-05T07:06:22.945Z,16.23
2023-03-05T07:08:50.690Z,13.13
2023-03-05T07:11:21.042Z,13.60
2023-03-05T07:13:49.443Z,13.25
2023-03-05T07:16:29.768Z,12.43
2023-03-05T07:18:59.726Z,14.15
2023-03-05T07:21:30.831Z,20.15
2023-03-05T07:24:04.460Z,17.63
2023-03-05T07:26:33.599Z,15.25
2023-03-05T07:29:01.790Z,14.35
2023-03-05T07:31:31.772Z,15.52
2023-03-05T07:34:02.307Z,16.27
2023-03-05T07:36:31.280Z,13.45
2023-03-05T07:38:58.354Z,13.15
2023-03-05T07:41:25.859Z,14.60
2023-03-05T07:43:55.068Z,13.60
2023-03-05T07:46:30.234Z,16.60
2023-03-05T07:48:57.738Z,17.23
2023-03-05T07:51:27.007Z,14.82
2023-03-05T07:53:57.724Z,14.05
2023-03-05T07:56:35.096Z,15.70
2023-03-05T07:59:07.582Z,13.80
2023-03-05T08:01:36.004Z,15.75
2023-03-05T08:04:05.707Z,15.85
2023-03-05T08:06:33.077Z,17.23
2023-03-05T08:09:00.347Z,14.98
2023-03-05T08:11:30.628Z,18.17
2023-03-05T08:13:59.374Z,15.20
2023-03-05T08:16:27.329Z,15.23
2023-03-05T08:18:57.350Z,17.38
2023-03-05T08:21:33.904Z,16.30
2023-03-05T08:24:04.404Z,15.10
2023-03-05T08:26:34.481Z,16.25
2023-03-05T08:29:03.402Z,15.23
2023-03-05T08:31:32.142Z,19.38
2023-03-05T08:34:03.483Z,16.17
2023-03-05T08:36:30.880Z,17.00
2023-03-05T08:38:59.678Z,15.95
2023-03-05T08:41:27.048Z,18.13
2023-03-05T08:43:54.430Z,19.23
2023-03-05T08:46:21.548Z,16.55
2023-03-05T08:48:49.116Z,15.35
2023-03-05T08:51:20.180Z,19.40
2023-03-05T08:53:48.102Z,16.83
2023-03-05T08:56:15.510Z,15.95
2023-03-05T08:58:43.896Z,20.50
2023-03-05T09:01:11.531Z,19.90
2023-03-05T09:03:39.557Z,17.00
2023-03-05T09:06:12.202Z,19.08
2023-03-05T09:08:40.615Z,17.83
2023-03-05T09:11:11.765Z,17.17
2023-03-05T09:13:39.387Z,19.73
2023-03-05T09:16:12.297Z,17.15
2023-03-05T09:18:40.633Z,19.73
2023-03-05T09:21:13.012Z,18.73
2023-03-05T09:23:41.125Z,15.35
2023-03-05T09:26:12.144Z,16.27
2023-03-05T09:28:40.890Z,15.93
2023-03-05T09:31:09.530Z,17.67
2023-03-05T09:33:38.338Z,17.20
2023-03-05T09:36:17.143Z,15.52
2023-03-05T09:38:57.339Z,21.17
2023-03-05T09:41:59.881Z,23.60
2023-03-05T09:45:02.607Z,20.80
2023-03-05T09:48:14.381Z,21.10
2023-03-05T09:50:56.549Z,17.67
2023-03-05T09:53:38.696Z,18.65
2023-03-05T09:56:35.999Z,22.02
2023-03-05T09:59:59.339Z,19.38
2023-03-05T10:02:34.310Z,23.45
2023-03-05T10:05:37.271Z,22.27
2023-03-05T10:08:05.954Z,21.90
2023-03-05T10:10:47.314Z,21.80
2023-03-05T10:13:26.424Z,22.60
2023-03-05T10:15:56.291Z,22.63
2023-03-05T10:18:56.409Z,20.33
2023-03-05T10:21:57.028Z,23.17
2023-03-05T10:25:09.623Z,22.38
2023-03-05T10:27:59.466Z,21.45
2023-03-05T10:30:51.562Z,21.90
2023-03-05T10:33:33.664Z,21.75
2023-03-05T10:36:45.736Z,21.23
2023-03-05T10:39:43.017Z,26.63
2023-03-05T10:42:51.496Z,27.15
2023-03-05T10:45:35.674Z,22.02
2023-03-05T10:48:23.704Z,24.25
2023-03-05T10:51:00.112Z,23.52
2023-03-05T10:53:42.867Z,22.70
2023-03-05T10:56:12.248Z,17.98
2023-03-05T10:58:39.477Z,20.67
2023-03-05T11:01:23.568Z,20.13
2023-03-05T11:04:26.919Z,18.50
2023-03-05T11:06:53.998Z,16.15
2023-03-05T11:09:32.488Z,12.50
2023-03-05T11:12:10.452Z,16.88
2023-03-05T11:15:02.920Z,18.90
2023-03-05T11:17:38.265Z,16.55
2023-03-05T11:20:27.669Z,17.98
2023-03-05T11:23:26.286Z,14.20
2023-03-05T11:26:04.307Z,15.00
2023-03-05T11:28:39.901Z,11.88
2023-03-05T11:31:16.562Z,13.05
2023-03-05T11:34:23.595Z,16.15
2023-03-05T11:36:50.941Z,12.95
2023-03-05T11:39:22.913Z,15.68
2023-03-05T11:42:15.087Z,15.63
2023-03-05T11:44:52.251Z,16.73
2023-03-05T11:47:46.095Z,15.63
2023-03-05T11:50:21.997Z,17.70
2023-03-05T11:52:55.743Z,18.70
2023-03-05T11:55:45.544Z,19.20
2023-03-05T11:58:41.146Z,14.85
2023-03-05T12:01:25.727Z,14.68
2023-03-05T12:03:55.495Z,13.90
2023-03-05T12:06:58.405Z,11.88
2023-03-05T12:12:52.912Z,14.52
2023-03-05T12:15:49.993Z,14.73
2023-03-05T12:18:35.757Z,11.70
2023-03-05T12:21:26.599Z,11.60
2023-03-05T12:24:01.681Z,12.75
2023-03-05T12:26:59.479Z,13.00
2023-03-05T12:29:41.036Z,13.13
2023-03-05T12:32:29.003Z,11.13
2023-03-05T12:35:00.994Z,12.60
2023-03-05T12:40:04.806Z,12.48
2023-03-05T12:42:32.080Z,12.98
2023-03-05T12:45:22.955Z,14.32
2023-03-05T12:47:56.051Z,19.40
2023-03-05T12:50:28.789Z,19.10
2023-03-05T12:53:14.720Z,17.00
2023-03-05T12:55:47.371Z,15.52
2023-03-05T12:58:35.954Z,14.90
2023-03-05T13:01:29.376Z,14.20
2023-03-05T13:04:05.136Z,13.55
2023-03-05T13:06:35.263Z,12.50
2023-03-05T13:09:07.716Z,12.35
2023-03-05T13:11:39.112Z,13.40
2023-03-05T13:14:55.563Z,12.23
2023-03-05T13:17:54.337Z,14.80
2023-03-05T13:20:34.309Z,13.85
2023-03-05T13:23:22.278Z,11.82
2023-03-05T13:26:18.946Z,11.43
2023-03-05T13:29:03.483Z,10.73
2023-03-05T13:31:31.622Z,13.93
2023-03-05T13:34:11.893Z,13.50
2023-03-05T13:36:45.419Z,12.95
2023-03-05T13:39:27.895Z,13.88
2023-03-05T13:42:31.318Z,14.60
2023-03-05T13:48:04.007Z,15.05
2023-03-05T13:50:38.047Z,15.40
2023-03-05T13:53:31.723Z,13.73
2023-03-05T13:56:06.483Z,17.30
2023-03-05T13:58:57.251Z,17.83
2023-03-05T14:01:36.670Z,16.40
2023-03-05T14:04:17.757Z,19.42
2023-03-05T14:07:26.994Z,19.60
2023-03-05T14:09:56.674Z,16.42
2023-03-05T14:12:40.868Z,18.95
2023-03-05T14:15:27.061Z,22.23
2023-03-05T14:18:19.863Z,22.20
2023-03-05T14:21:08.923Z,22.73
2023-03-05T14:23:41.427Z,20.67
2023-03-05T14:26:32.773Z,20.40
2023-03-05T14:29:11.733Z,22.58
2023-03-05T14:31:57.770Z,16.70
2023-03-05T14:34:36.776Z,17.95
2023-03-05T14:37:31.919Z,16.00
2023-03-05T14:40:06.453Z,17.27
2023-03-05T14:42:38.734Z,16.88
2023-03-05T14:45:16.002Z,15.98
2023-03-05T14:47:43.572Z,14.02
2023-03-05T14:50:17.289Z,11.95
2023-03-05T14:52:48.304Z,12.32
2023-03-05T14:55:19.771Z,11.02
2023-03-05T14:57:51.401Z,12.00
2023-03-05T15:00:25.357Z,10.63
2023-03-05T15:02:53.096Z,10.63
2023-03-05T15:05:20.632Z,9.38
2023-03-05T15:07:48.976Z,8.45
2023-03-05T15:10:20.148Z,10.95
2023-03-05T15:12:47.785Z,10.93
2023-03-05T15:15:15.429Z,6.72
2023-03-05T15:17:47.859Z,6.30
2023-03-05T15:20:20.044Z,7.18
2023-03-05T15:22:47.603Z,6.57
2023-03-05T15:25:15.167Z,6.28
2023-03-05T15:27:42.964Z,8.48
2023-03-05T15:30:25.987Z,12.35
2023-03-05T15:32:55.761Z,8.40
2023-03-05T15:35:24.724Z,7.78
2023-03-05T15:37:53.089Z,10.70
2023-03-05T15:40:21.587Z,9.32
2023-03-05T15:42:49.156Z,10.85
2023-03-05T15:45:16.927Z,10.80
2023-03-05T15:47:44.142Z,11.18
2023-03-05T15:50:11.846Z,11.43
2023-03-05T15:52:39.314Z,12.90
2023-03-05T15:55:07.287Z,13.23
2023-03-05T15:57:41.909Z,13.70
2023-03-05T16:00:11.200Z,14.50
2023-03-05T16:02:38.443Z,14.82
2023-03-05T16:05:06.442Z,14.43
2023-03-05T16:07:37.256Z,17.48
2023-03-05T16:10:06.170Z,17.48
2023-03-05T16:12:40.758Z,18.27
2023-03-05T16:15:11.629Z,16.02
2023-03-05T16:17:43.087Z,14.05
2023-03-05T16:20:12.732Z,16.70
2023-03-05T16:22:40.001Z,14.10
2023-03-05T16:25:08.004Z,14.48
2023-03-05T16:27:35.660Z,16.35
2023-03-05T16:30:07.361Z,13.10
2023-03-05T16:32:34.720Z,12.27
2023-03-05T16:35:03.168Z,12.73
2023-03-05T16:37:30.492Z,12.25
2023-03-05T16:40:00.514Z,13.25
2023-03-05T16:42:28.666Z,13.85
2023-03-05T16:44:56.665Z,13.60
2023-03-05T16:47:25.630Z,14.80
2023-03-05T16:49:52.788Z,12.77
2023-03-05T16:52:21.095Z,12.95
2023-03-05T16:54:48.587Z,13.77
2023-03-05T16:57:16.362Z,13.52
2023-03-05T16:59:44.168Z,15.00
2023-03-05T17:02:13.234Z,12.57
2023-03-05T17:04:50.383Z,11.50
2023-03-05T17:07:18.546Z,14.75
2023-03-05T17:09:47.810Z,10.63
2023-03-05T17:12:15.190Z,11.75
2023-03-05T17:14:42.221Z,15.30
2023-03-05T17:17:09.552Z,14.30
2023-03-05T17:19:36.911Z,12.52
2023-03-05T17:22:04.736Z,12.85
2023-03-05T17:24:32.923Z,16.25
2023-03-05T17:27:00.919Z,12.95
2023-03-05T17:29:29.080Z,11.52
2023-03-05T17:31:56.357Z,13.88
2023-03-05T17:34:35.508Z,12.27
2023-03-05T17:37:04.976Z,11.30
2023-03-05T17:39:32.360Z,10.68
2023-03-05T17:42:05.661Z,11.95
2023-03-05T17:44:32.890Z,12.48
2023-03-05T17:47:00.328Z,20.25
2023-03-05T17:49:29.455Z,27.08
2023-03-05T17:51:56.977Z,31.88
2023-03-05T17:54:24.082Z,45.47
2023-03-05T17:56:57.762Z,43.83
2023-03-05T17:59:25.798Z,47.70
2023-03-05T18:01:53.015Z,49.22
2023-03-05T18:04:20.568Z,47.67
2023-03-05T18:06:47.871Z,49.22
2023-03-05T18:09:14.864Z,45.30
2023-03-05T18:11:42.339Z,47.15
2023-03-05T18:14:09.464Z,44.13
2023-03-05T18:16:36.653Z,36.97
2023-03-05T18:19:03.913Z,33.42
2023-03-05T18:21:31.232Z,28.08
2023-03-05T18:23:58.401Z,25.25
2023-03-05T18:26:25.818Z,22.67
2023-03-05T18:28:53.001Z,22.75
2023-03-05T18:31:20.441Z,26.98
2023-03-05T18:33:47.673Z,26.08
2023-03-05T18:36:15.414Z,24.65
2023-03-05T18:38:43.056Z,15.30
2023-03-05T18:41:22.238Z,18.67
2023-03-05T18:43:50.520Z,17.27
2023-03-05T18:46:18.586Z,19.83
2023-03-05T18:48:48.253Z,23.50
2023-03-05T18:51:19.395Z,21.08
2023-03-05T18:53:46.487Z,19.58
2023-03-05T18:56:14.186Z,21.17
2023-03-05T18:58:41.334Z,21.95
2023-03-05T19:01:09.349Z,20.08
2023-03-05T19:03:36.657Z,15.40
2023-03-05T19:06:08.586Z,14.95
2023-03-05T19:08:36.021Z,16.92
2023-03-05T19:11:03.754Z,16.13
2023-03-05T19:13:39.801Z,16.73
2023-03-05T19:16:17.748Z,16.38
2023-03-05T19:19:27.590Z,16.02
2023-03-05T19:22:00.551Z,13.80
2023-03-05T19:24:33.268Z,13.15
2023-03-05T19:27:03.344Z,13.88
2023-03-05T19:29:32.966Z,16.30
2023-03-05T19:32:00.491Z,18.85
2023-03-05T19:34:27.523Z,20.23
2023-03-05T19:36:54.781Z,15.10
2023-03-05T19:39:21.765Z,19.25
2023-03-05T19:41:49.120Z,19.50
2023-03-05T19:44:18.554Z,21.67
2023-03-05T19:46:48.344Z,26.40
2023-03-05T19:49:19.660Z,25.45
2023-03-05T19:51:48.186Z,25.40
2023-03-05T19:54:18.854Z,21.65
2023-03-05T19:56:48.481Z,21.75
2023-03-05T19:59:18.624Z,23.83
2023-03-05T20:01:46.119Z,21.42
2023-03-05T20:04:25.640Z,18.05
2023-03-05T20:06:52.955Z,25.60
2023-03-05T20:09:20.257Z,23.77
2023-03-05T20:11:47.979Z,23.08
2023-03-05T20:14:15.138Z,21.27
2023-03-05T20:16:43.449Z,20.13
2023-03-05T20:19:16.996Z,20.80
2023-03-05T20:21:45.209Z,23.50
2023-03-05T20:24:16.819Z,18.20
2023-03-05T20:26:46.728Z,17.15
2023-03-05T20:29:17.658Z,20.50
2023-03-05T20:31:46.559Z,20.85
2023-03-05T20:34:17.588Z,22.35
2023-03-05T20:36:45.619Z,18.40
2023-03-05T20:39:12.756Z,17.90
2023-03-05T20:41:40.484Z,17.20
2023-03-05T20:44:08.626Z,20.60
2023-03-05T20:46:45.266Z,16.88
2023-03-05T20:49:12.255Z,15.30
2023-03-05T20:51:39.536Z,18.15
2023-03-05T20:54:11.606Z,18.65
2023-03-05T20:56:39.493Z,18.80
2023-03-05T20:59:09.028Z,19.35
2023-03-05T21:01:39.899Z,16.77
2023-03-05T21:04:08.508Z,14.57
2023-03-05T21:06:36.357Z,14.15
2023-03-05T21:09:04.387Z,17.15
2023-03-05T21:11:32.260Z,18.38
2023-03-05T21:13:59.358Z,14.73
2023-03-05T21:16:28.026Z,16.58
2023-03-05T21:18:57.126Z,16.63
2023-03-05T21:21:25.003Z,14.13
2023-03-05T21:23:53.425Z,16.15
2023-03-05T21:26:21.374Z,13.63
2023-03-05T21:28:48.370Z,14.82
2023-03-05T21:31:20.601Z,13.02
2023-03-05T21:33:48.170Z,15.38
2023-03-05T21:36:19.131Z,14.52
2023-03-05T21:38:48.224Z,16.05
2023-03-05T21:41:17.910Z,14.18
2023-03-05T21:43:44.939Z,13.82
2023-03-05T21:46:12.383Z,15.05
2023-03-05T21:48:39.614Z,16.33
2023-03-05T21:51:08.924Z,12.75
2023-03-05T21:53:36.487Z,12.80
2023-03-05T21:56:19.572Z,12.77
2023-03-05T21:58:47.934Z,13.18
2023-03-05T22:01:18.549Z,14.00
2023-03-05T22:03:46.101Z,12.52
2023-03-05T22:06:16.137Z,12.45
2023-03-05T22:08:43.443Z,10.95
2023-03-05T22:11:16.974Z,13.18
2023-03-05T22:13:44.599Z,12.75
2023-03-05T22:16:21.329Z,10.63
2023-03-05T22:18:48.397Z,11.30
2023-03-05T22:21:23.145Z,11.63
2023-03-05T22:23:50.267Z,14.88
2023-03-05T22:26:17.576Z,10.27
2023-03-05T22:28:44.856Z,13.07
2023-03-05T22:31:20.796Z,14.05
2023-03-05T22:33:48.563Z,11.90
2023-03-05T22:36:16.787Z,12.57
2023-03-05T22:38:44.376Z,12.05
2023-03-05T22:41:15.601Z,15.18
2023-03-05T22:43:42.847Z,13.75
2023-03-05T22:46:16.664Z,11.88
2023-03-05T22:48:45.167Z,12.75
2023-03-05T22:51:13.768Z,14.95
2023-03-05T22:53:41.809Z,13.73
2023-03-05T22:56:14.211Z,12.55
2023-03-05T22:58:42.125Z,15.20
2023-03-05T23:01:22.412Z,12.35
2023-03-05T23:03:54.857Z,11.85
2023-03-05T23:06:22.266Z,11.75
2023-03-05T23:08:49.278Z,10.85
2023-03-05T23:11:16.890Z,11.40
2023-03-05T23:13:43.800Z,11.10
2023-03-05T23:16:11.034Z,10.85
2023-03-05T23:18:38.166Z,9.88
2023-03-05T23:21:05.655Z,10.30
2023-03-05T23:23:32.687Z,11.48
2023-03-05T23:26:00.035Z,11.80
2023-03-05T23:28:27.130Z,9.23
2023-03-05T23:30:54.489Z,9.73
2023-03-05T23:33:23.380Z,9.50
2023-03-05T23:35:59.713Z,9.20
2023-03-05T23:38:29.582Z,9.25
2023-03-05T23:41:01.154Z,7.50
2023-03-05T23:43:29.826Z,8.48
2023-03-05T23:45:57.390Z,6.85
2023-03-05T23:48:26.332Z,8.10
2023-03-05T23:50:54.660Z,8.88
2023-03-05T23:53:28.340Z,7.72
2023-03-05T23:55:56.091Z,8.05
2023-03-05T23:58:23.790Z,8.30
